Time;durP1;ratioP1;P1;durP2;ratioP2;P2;SDS_P1;SDS_P2;PMS_P1;PMS_P2;Temp;Humidity;BMP_temperature;BMP_pressure;BME280_temperature;BME280_humidity;BME280_pressure;Samples;Min_cycle;Max_cycle;Signal;HPM_P1;HPM_P2
2022/01/02 00:01:30;;;;;;;11.95;10.38;;;;;;;;;;5032937;28;20033;-48
2022/01/02 00:04:01;;;;;;;14.60;10.20;;;;;;;;;;5031290;28;20125;-50
2022/01/02 00:06:31;;;;;;;12.87;10.23;;;;;;;;;;5034640;28;20036;-48
2022/01/02 00:09:07;;;;;;;12.88;10.02;;;;;;;;;;5027437;28;20032;-48
2022/01/02 00:11:34;;;;;;;12.95;9.75;;;;;;;;;;5026446;28;20033;-55
2022/01/02 00:14:07;;;;;;;11.13;8.57;;;;;;;;;;5032036;28;20075;-47
2022/01/02 00:16:37;;;;;;;13.45;9.60;;;;;;;;;;5032221;28;20032;-50
2022/01/02 00:19:20;;;;;;;11.52;9.02;;;;;;;;;;5028047;28;20545;-53
2022/01/02 00:21:47;;;;;;;11.05;8.85;;;;;;;;;;5027368;28;20065;-54
2022/01/02 00:24:18;;;;;;;12.35;9.55;;;;;;;;;;5028055;28;20048;-49
2022/01/02 00:26:46;;;;;;;9.55;8.18;;;;;;;;;;5033016;28;20040;-53
2022/01/02 00:29:12;;;;;;;12.40;8.85;;;;;;;;;;5033073;28;20694;-49
2022/01/02 00:31:39;;;;;;;13.02;8.95;;;;;;;;;;5030021;28;20023;-47
2022/01/02 00:34:06;;;;;;;10.40;8.27;;;;;;;;;;5026440;28;20490;-48
2022/01/02 00:36:32;;;;;;;11.05;9.32;;;;;;;;;;5029089;28;20068;-50
2022/01/02 00:38:58;;;;;;;10.15;8.10;;;;;;;;;;5032535;28;20555;-47
2022/01/02 00:41:31;;;;;;;10.88;8.35;;;;;;;;;;5030011;28;20037;-50
2022/01/02 00:44:08;;;;;;;15.13;8.50;;;;;;;;;;5031768;28;20032;-48
2022/01/02 00:46:37;;;;;;;9.43;7.60;;;;;;;;;;5032424;28;20031;-48
2022/01/02 00:49:04;;;;;;;11.75;8.10;;;;;;;;;;5029359;28;20113;-52
2022/01/02 00:51:47;;;;;;;10.82;8.35;;;;;;;;;;5032431;28;20034;-51
2022/01/02 00:54:16;;;;;;;10.38;8.18;;;;;;;;;;5028584;28;20610;-48
2022/01/02 00:56:45;;;;;;;11.23;7.43;;;;;;;;;;5028132;28;20041;-55
2022/01/02 00:59:29;;;;;;;10.20;7.63;;;;;;;;;;5029678;28;20033;-49
2022/01/02 01:02:04;;;;;;;9.05;7.20;;;;;;;;;;5022226;28;20028;-48
2022/01/02 01:04:32;;;;;;;8.70;7.18;;;;;;;;;;5028948;28;20032;-48
2022/01/02 01:07:05;;;;;;;12.10;7.07;;;;;;;;;;5021046;28;20452;-48
2022/01/02 01:09:31;;;;;;;7.85;7.03;;;;;;;;;;5027878;28;20089;-48
2022/01/02 01:12:03;;;;;;;11.70;7.80;;;;;;;;;;5020788;28;20079;-53
2022/01/02 01:14:30;;;;;;;9.23;6.95;;;;;;;;;;5029728;28;20034;-49
2022/01/02 01:16:57;;;;;;;9.43;6.95;;;;;;;;;;5030961;28;20029;-52
2022/01/02 01:19:23;;;;;;;8.63;7.32;;;;;;;;;;5028919;28;20044;-52
2022/01/02 01:21:50;;;;;;;8.32;7.05;;;;;;;;;;5027532;28;20030;-52
2022/01/02 01:24:17;;;;;;;9.60;7.63;;;;;;;;;;5026709;28;20041;-50
2022/01/02 01:26:45;;;;;;;9.18;6.72;;;;;;;;;;5027813;28;20147;-47
2022/01/02 01:29:11;;;;;;;9.23;6.78;;;;;;;;;;5034712;28;20071;-52
2022/01/02 01:31:38;;;;;;;10.05;7.00;;;;;;;;;;5032578;28;20029;-52
2022/01/02 01:34:03;;;;;;;8.70;6.50;;;;;;;;;;5027130;28;20044;-49
2022/01/02 01:36:29;;;;;;;6.85;6.22;;;;;;;;;;5025687;28;20451;-47
2022/01/02 01:38:55;;;;;;;7.68;6.88;;;;;;;;;;5027034;28;20080;-54
2022/01/02 01:41:29;;;;;;;9.60;7.40;;;;;;;;;;5031763;28;20120;-51
2022/01/02 01:44:08;;;;;;;9.00;6.97;;;;;;;;;;5027939;28;20080;-50
2022/01/02 01:46:35;;;;;;;9.10;7.00;;;;;;;;;;5032350;28;20087;-54
2022/01/02 01:49:12;;;;;;;12.15;6.82;;;;;;;;;;5020488;28;20084;-50
2022/01/02 01:51:38;;;;;;;8.57;6.60;;;;;;;;;;5021615;28;20504;-51
2022/01/02 01:54:04;;;;;;;7.93;6.80;;;;;;;;;;5040416;28;20037;-52
2022/01/02 01:56:31;;;;;;;10.95;7.32;;;;;;;;;;5027863;28;20055;-52
2022/01/02 01:58:57;;;;;;;8.13;7.25;;;;;;;;;;5030541;28;20013;-49
2022/01/02 02:01:22;;;;;;;9.57;7.40;;;;;;;;;;5022780;28;20028;-51
2022/01/02 02:03:48;;;;;;;9.73;7.93;;;;;;;;;;5027453;28;20029;-51
2022/01/02 02:06:14;;;;;;;10.07;7.63;;;;;;;;;;5032446;28;20482;-50
2022/01/02 02:08:40;;;;;;;9.90;8.20;;;;;;;;;;5030116;28;20030;-50
2022/01/02 02:11:06;;;;;;;11.57;7.38;;;;;;;;;;5029363;28;20032;-53
2022/01/02 02:13:33;;;;;;;10.55;8.25;;;;;;;;;;5022317;28;20350;-55
2022/01/02 02:16:00;;;;;;;10.77;7.82;;;;;;;;;;5030944;28;20650;-47
2022/01/02 02:18:26;;;;;;;10.73;7.70;;;;;;;;;;5031395;28;20098;-55
2022/01/02 02:20:51;;;;;;;10.07;8.23;;;;;;;;;;5033562;28;20037;-55
2022/01/02 02:23:17;;;;;;;9.10;7.68;;;;;;;;;;5031418;28;20029;-48
2022/01/02 02:25:43;;;;;;;10.52;7.68;;;;;;;;;;5023810;28;20030;-51
2022/01/02 02:28:09;;;;;;;8.73;7.50;;;;;;;;;;5029222;28;20033;-55
2022/01/02 02:30:37;;;;;;;10.82;7.63;;;;;;;;;;5027796;28;20022;-54
2022/01/02 02:33:05;;;;;;;11.20;8.15;;;;;;;;;;5033937;28;20040;-55
2022/01/02 02:35:32;;;;;;;8.95;7.40;;;;;;;;;;5030010;28;20017;-49
2022/01/02 02:37:58;;;;;;;12.45;7.78;;;;;;;;;;5026477;28;20406;-55
2022/01/02 02:40:26;;;;;;;11.27;8.40;;;;;;;;;;5025623;28;20037;-53
2022/01/02 02:42:56;;;;;;;10.90;8.48;;;;;;;;;;5033027;28;20587;-55
2022/01/02 02:51:20;;;;;;;9.20;7.13;;;;;;;;;;5025814;28;20025;-49
2022/01/02 02:53:48;;;;;;;10.23;7.75;;;;;;;;;;5043783;28;20025;-54
2022/01/02 02:59:04;;;;;;;8.38;7.35;;;;;;;;;;5028457;28;20195;-48
2022/01/02 03:01:30;;;;;;;8.98;6.82;;;;;;;;;;5027853;28;20049;-51
2022/01/02 03:03:56;;;;;;;12.07;7.38;;;;;;;;;;5026256;28;20046;-52
2022/01/02 03:06:22;;;;;;;8.75;6.75;;;;;;;;;;5025650;28;20040;-53
2022/01/02 03:08:49;;;;;;;10.25;7.60;;;;;;;;;;5026511;28;20029;-53
2022/01/02 03:11:20;;;;;;;9.40;7.13;;;;;;;;;;5028076;28;20052;-47
2022/01/02 03:13:50;;;;;;;9.77;6.75;;;;;;;;;;5024311;28;20064;-52
2022/01/02 03:16:16;;;;;;;11.95;7.03;;;;;;;;;;5027151;28;20037;-50
2022/01/02 03:18:42;;;;;;;8.70;6.70;;;;;;;;;;5028101;28;20044;-56
2022/01/02 03:21:08;;;;;;;9.18;7.35;;;;;;;;;;5027801;28;20112;-53
2022/01/02 03:23:35;;;;;;;7.75;6.95;;;;;;;;;;5027694;28;20037;-54
2022/01/02 03:26:01;;;;;;;9.23;6.95;;;;;;;;;;5027960;28;20743;-53
2022/01/02 03:28:26;;;;;;;9.05;6.88;;;;;;;;;;5027974;28;20116;-50
2022/01/02 03:30:52;;;;;;;9.27;7.20;;;;;;;;;;5027877;28;20056;-51
2022/01/02 03:33:18;;;;;;;8.50;6.80;;;;;;;;;;5029054;28;20390;-53
2022/01/02 03:35:44;;;;;;;7.68;6.60;;;;;;;;;;5021355;28;20065;-52
2022/01/02 03:38:10;;;;;;;8.45;6.78;;;;;;;;;;5009024;28;20065;-52
2022/01/02 03:40:36;;;;;;;9.20;6.97;;;;;;;;;;5010538;28;20478;-54
2022/01/02 03:43:04;;;;;;;8.73;6.97;;;;;;;;;;5006405;28;20033;-51
2022/01/02 03:45:30;;;;;;;10.95;7.43;;;;;;;;;;5009935;28;20026;-52
2022/01/02 03:47:55;;;;;;;7.72;6.57;;;;;;;;;;5009983;28;20037;-55
2022/01/02 03:50:21;;;;;;;8.25;7.35;;;;;;;;;;5004032;28;20398;-52
2022/01/02 03:52:47;;;;;;;8.88;7.15;;;;;;;;;;5007466;28;20117;-56
2022/01/02 03:55:13;;;;;;;8.63;7.32;;;;;;;;;;5009965;28;20418;-56
2022/01/02 03:57:38;;;;;;;7.25;6.53;;;;;;;;;;5004210;28;20060;-54
2022/01/02 04:00:07;;;;;;;10.30;7.32;;;;;;;;;;5007327;28;20035;-55
2022/01/02 04:02:37;;;;;;;9.63;6.97;;;;;;;;;;5006681;28;20065;-50
2022/01/02 04:05:06;;;;;;;9.05;6.80;;;;;;;;;;5006367;28;20030;-52
2022/01/02 04:07:32;;;;;;;8.93;7.03;;;;;;;;;;5004519;28;20112;-55
2022/01/02 04:10:04;;;;;;;8.85;6.82;;;;;;;;;;5005398;28;20128;-52
2022/01/02 04:12:30;;;;;;;;;;;;;;;;;;5005785;28;20539;-53
2022/01/02 04:14:55;;;;;;;9.95;6.65;;;;;;;;;;5001273;28;19921;-54
2022/01/02 04:17:23;;;;;;;10.18;6.75;;;;;;;;;;5007143;28;20037;-52
2022/01/02 04:19:50;;;;;;;7.28;6.15;;;;;;;;;;5019385;28;20159;-54
2022/01/02 04:22:16;;;;;;;7.30;6.45;;;;;;;;;;5029103;28;20490;-54
2022/01/02 04:24:42;;;;;;;7.50;6.32;;;;;;;;;;5027708;28;20430;-54
2022/01/02 04:27:08;;;;;;;6.90;6.05;;;;;;;;;;5027654;28;20037;-56
2022/01/02 04:29:34;;;;;;;8.13;6.10;;;;;;;;;;5030175;28;20057;-54
2022/01/02 04:31:59;;;;;;;9.50;6.63;;;;;;;;;;5029726;28;20087;-55
2022/01/02 04:34:25;;;;;;;8.18;6.60;;;;;;;;;;5022651;28;20087;-56
2022/01/02 04:36:51;;;;;;;6.47;5.85;;;;;;;;;;5030046;28;20061;-55
2022/01/02 04:39:17;;;;;;;8.30;5.50;;;;;;;;;;5032789;28;20030;-55
2022/01/02 04:41:43;;;;;;;7.53;5.88;;;;;;;;;;5031254;28;20069;-46
2022/01/02 04:44:09;;;;;;;8.30;6.30;;;;;;;;;;5025972;28;20028;-48
2022/01/02 04:46:35;;;;;;;7.25;6.00;;;;;;;;;;5021619;28;20168;-50
2022/01/02 04:49:01;;;;;;;7.45;6.28;;;;;;;;;;5020373;28;20036;-48
2022/01/02 04:51:27;;;;;;;9.40;6.13;;;;;;;;;;5034142;28;20037;-50
2022/01/02 04:53:52;;;;;;;8.02;6.25;;;;;;;;;;5030773;28;20037;-49
2022/01/02 04:56:18;;;;;;;6.93;6.20;;;;;;;;;;5025279;28;20103;-50
2022/01/02 04:58:44;;;;;;;7.90;6.15;;;;;;;;;;5028439;28;20029;-49
2022/01/02 05:01:14;;;;;;;10.45;6.85;;;;;;;;;;5030857;28;20117;-50
2022/01/02 05:03:43;;;;;;;6.50;5.88;;;;;;;;;;5029170;28;20040;-49
2022/01/02 05:06:10;;;;;;;7.40;6.45;;;;;;;;;;5028404;28;20125;-50
2022/01/02 05:08:37;;;;;;;7.45;6.57;;;;;;;;;;5030765;28;20105;-47
2022/01/02 05:11:04;;;;;;;7.85;6.57;;;;;;;;;;5029537;28;20045;-49
2022/01/02 05:13:30;;;;;;;10.50;6.50;;;;;;;;;;5028023;28;20070;-48
2022/01/02 05:15:55;;;;;;;8.63;6.55;;;;;;;;;;5033375;28;20465;-47
2022/01/02 05:18:21;;;;;;;8.13;5.82;;;;;;;;;;5033491;28;20064;-51
2022/01/02 05:20:47;;;;;;;8.13;6.45;;;;;;;;;;5029403;28;20121;-50
2022/01/02 05:23:16;;;;;;;7.30;6.13;;;;;;;;;;5028381;28;20025;-49
2022/01/02 05:25:43;;;;;;;6.93;6.10;;;;;;;;;;5033047;28;20112;-48
2022/01/02 05:28:11;;;;;;;7.63;6.57;;;;;;;;;;5023752;28;20044;-51
2022/01/02 05:30:38;;;;;;;8.25;6.80;;;;;;;;;;5025400;28;20030;-50
2022/01/02 05:33:04;;;;;;;6.70;6.03;;;;;;;;;;5024252;28;20065;-49
2022/01/02 05:35:31;;;;;;;9.35;6.65;;;;;;;;;;5028579;28;20429;-50
2022/01/02 05:37:58;;;;;;;9.43;6.80;;;;;;;;;;5027906;28;20040;-50
2022/01/02 05:40:24;;;;;;;8.20;6.70;;;;;;;;;;5030077;28;20032;-47
2022/01/02 05:42:50;;;;;;;8.68;6.80;;;;;;;;;;5030445;28;20036;-51
2022/01/02 05:45:16;;;;;;;8.95;6.75;;;;;;;;;;5029587;28;20033;-48
2022/01/02 05:47:42;;;;;;;7.68;6.38;;;;;;;;;;5031334;28;20398;-48
2022/01/02 05:50:08;;;;;;;9.07;6.93;;;;;;;;;;5033964;28;20457;-51
2022/01/02 05:52:34;;;;;;;8.35;6.43;;;;;;;;;;5024815;28;20037;-52
2022/01/02 05:55:00;;;;;;;7.80;6.68;;;;;;;;;;5019961;28;20434;-49
2022/01/02 05:57:26;;;;;;;9.45;7.10;;;;;;;;;;5028134;28;20382;-51
2022/01/02 05:59:52;;;;;;;7.53;6.35;;;;;;;;;;5032426;28;20040;-47
2022/01/02 06:02:17;;;;;;;6.28;5.63;;;;;;;;;;5036344;28;20067;-48
2022/01/02 06:04:43;;;;;;;7.78;6.22;;;;;;;;;;5026760;28;20483;-47
2022/01/02 06:07:09;;;;;;;7.57;6.28;;;;;;;;;;5017920;28;20044;-49
2022/01/02 06:09:35;;;;;;;7.07;6.18;;;;;;;;;;5036512;28;20068;-49
2022/01/02 06:12:00;;;;;;;10.02;6.60;;;;;;;;;;5024393;28;20041;-50
2022/01/02 06:14:26;;;;;;;7.18;5.80;;;;;;;;;;5027398;28;20040;-49
2022/01/02 06:16:52;;;;;;;6.60;6.00;;;;;;;;;;5025803;28;20650;-52
2022/01/02 06:19:17;;;;;;;6.75;5.75;;;;;;;;;;5035036;28;20049;-51
2022/01/02 06:21:43;;;;;;;7.53;6.68;;;;;;;;;;5028987;28;20033;-52
2022/01/02 06:24:09;;;;;;;6.32;5.72;;;;;;;;;;5035067;28;20033;-47
2022/01/02 06:26:35;;;;;;;6.55;5.95;;;;;;;;;;5035432;28;20099;-48
2022/01/02 06:29:03;;;;;;;6.45;5.78;;;;;;;;;;5025294;28;20052;-49
2022/01/02 06:31:31;;;;;;;8.98;6.13;;;;;;;;;;5030122;28;20117;-47
2022/01/02 06:33:57;;;;;;;8.98;6.35;;;;;;;;;;5027192;28;20160;-48
2022/01/02 06:36:23;;;;;;;6.82;6.13;;;;;;;;;;5030131;28;20509;-47
2022/01/02 06:38:49;;;;;;;7.15;6.32;;;;;;;;;;5036864;28;20033;-49
2022/01/02 06:41:16;;;;;;;6.60;5.90;;;;;;;;;;5032692;28;20100;-53
2022/01/02 06:43:43;;;;;;;8.55;6.30;;;;;;;;;;5020076;28;20029;-49
2022/01/02 06:46:09;;;;;;;6.72;6.03;;;;;;;;;;5031586;28;20107;-49
2022/01/02 06:48:35;;;;;;;7.75;5.85;;;;;;;;;;5032485;28;20489;-50
2022/01/02 06:51:01;;;;;;;8.27;5.50;;;;;;;;;;5039811;28;20037;-50
2022/01/02 06:53:26;;;;;;;7.75;6.10;;;;;;;;;;5035331;28;20116;-52
2022/01/02 06:55:52;;;;;;;6.05;5.07;;;;;;;;;;5035162;28;20168;-55
2022/01/02 06:58:18;;;;;;;6.32;5.70;;;;;;;;;;5035422;28;20036;-49
2022/01/02 07:00:44;;;;;;;6.38;5.75;;;;;;;;;;5030191;28;20029;-49
2022/01/02 07:03:09;;;;;;;6.00;5.15;;;;;;;;;;5034509;28;20064;-48
2022/01/02 07:05:36;;;;;;;8.63;5.80;;;;;;;;;;5037351;28;20029;-51
2022/01/02 07:08:01;;;;;;;5.43;4.93;;;;;;;;;;5030365;28;20082;-48
2022/01/02 07:10:27;;;;;;;6.93;5.35;;;;;;;;;;5025121;28;20041;-47
2022/01/02 07:12:53;;;;;;;5.63;5.13;;;;;;;;;;5031599;28;20025;-49
2022/01/02 07:15:19;;;;;;;7.43;5.70;;;;;;;;;;5025927;28;20375;-48
2022/01/02 07:17:45;;;;;;;9.35;5.63;;;;;;;;;;5030049;28;20033;-49
2022/01/02 07:20:12;;;;;;;6.05;5.05;;;;;;;;;;5036220;28;20410;-50
2022/01/02 07:22:40;;;;;;;7.68;5.20;;;;;;;;;;5031281;28;20482;-47
2022/01/02 07:25:07;;;;;;;7.07;5.50;;;;;;;;;;5028835;28;20021;-53
2022/01/02 07:27:33;;;;;;;5.38;4.88;;;;;;;;;;5023723;28;20082;-50
2022/01/02 07:29:59;;;;;;;7.93;5.13;;;;;;;;;;5036830;28;20029;-50
2022/01/02 07:32:25;;;;;;;5.90;5.35;;;;;;;;;;5035482;28;20708;-47
2022/01/02 07:34:51;;;;;;;6.00;5.10;;;;;;;;;;5033489;28;20060;-49
2022/01/02 07:37:17;;;;;;;6.72;4.85;;;;;;;;;;5027543;28;20033;-48
2022/01/02 07:39:42;;;;;;;6.15;5.13;;;;;;;;;;5035927;28;20022;-47
2022/01/02 07:42:08;;;;;;;6.13;5.53;;;;;;;;;;5033717;28;20037;-53
2022/01/02 07:44:36;;;;;;;5.93;5.35;;;;;;;;;;5029272;28;20033;-47
2022/01/02 07:47:03;;;;;;;6.50;5.38;;;;;;;;;;5034070;28;20040;-53
2022/01/02 07:49:29;;;;;;;5.78;4.97;;;;;;;;;;5034725;28;20037;-48
2022/01/02 07:51:55;;;;;;;6.55;5.45;;;;;;;;;;5029299;28;20032;-48
2022/01/02 07:54:20;;;;;;;6.47;4.90;;;;;;;;;;5029898;28;20048;-53
2022/01/02 07:56:46;;;;;;;7.72;4.90;;;;;;;;;;5035205;28;20029;-53
2022/01/02 07:59:12;;;;;;;5.55;5.05;;;;;;;;;;5032923;28;20500;-48
2022/01/02 08:01:38;;;;;;;6.38;5.43;;;;;;;;;;5029355;28;20501;-48
2022/01/02 08:04:04;;;;;;;6.22;5.28;;;;;;;;;;5032395;28;20021;-50
2022/01/02 08:06:30;;;;;;;6.80;5.30;;;;;;;;;;5035291;28;20023;-50
2022/01/02 08:08:55;;;;;;;5.50;5.00;;;;;;;;;;5033930;28;20025;-55
2022/01/02 08:11:22;;;;;;;5.50;4.85;;;;;;;;;;5032557;28;20030;-47
2022/01/02 08:13:47;;;;;;;5.65;5.15;;;;;;;;;;5033210;28;20079;-53
2022/01/02 08:16:14;;;;;;;10.50;5.60;;;;;;;;;;5029902;28;20034;-51
2022/01/02 08:18:40;;;;;;;5.97;5.38;;;;;;;;;;5033149;28;20033;-50
2022/01/02 08:21:07;;;;;;;5.38;4.82;;;;;;;;;;5032634;28;20025;-48
2022/01/02 08:23:33;;;;;;;5.43;4.90;;;;;;;;;;5030912;28;20052;-53
2022/01/02 08:25:59;;;;;;;6.00;5.45;;;;;;;;;;5033434;28;20045;-54
2022/01/02 08:28:25;;;;;;;6.20;5.60;;;;;;;;;;5027657;28;20072;-51
2022/01/02 08:30:50;;;;;;;5.45;4.95;;;;;;;;;;5025682;28;20029;-51
2022/01/02 08:33:17;;;;;;;6.20;5.60;;;;;;;;;;5036369;28;20037;-51
2022/01/02 08:35:43;;;;;;;5.85;5.03;;;;;;;;;;5034118;28;20029;-55
2022/01/02 08:38:10;;;;;;;5.80;5.30;;;;;;;;;;5031186;28;20029;-47
2022/01/02 08:40:39;;;;;;;6.72;5.45;;;;;;;;;;5031179;28;20040;-48
2022/01/02 08:43:06;;;;;;;8.88;5.25;;;;;;;;;;5031146;28;20069;-54
2022/01/02 08:45:33;;;;;;;5.75;4.97;;;;;;;;;;5035889;28;20029;-50
2022/01/02 08:47:59;;;;;;;12.50;5.15;;;;;;;;;;5031612;28;20041;-50
2022/01/02 08:50:25;;;;;;;7.43;5.25;;;;;;;;;;5032201;28;20394;-53
2022/01/02 08:52:51;;;;;;;6.18;5.53;;;;;;;;;;5024254;28;20033;-47
2022/01/02 08:55:17;;;;;;;7.38;5.20;;;;;;;;;;5025303;28;20025;-51
2022/01/02 08:57:43;;;;;;;6.10;5.50;;;;;;;;;;5029687;28;20040;-48
2022/01/02 09:00:10;;;;;;;5.15;4.65;;;;;;;;;;5032295;28;20108;-52
2022/01/02 09:02:36;;;;;;;6.13;5.50;;;;;;;;;;5026717;28;20498;-49
2022/01/02 09:05:03;;;;;;;5.53;4.93;;;;;;;;;;5034188;28;20032;-52
2022/01/02 09:07:29;;;;;;;6.85;5.18;;;;;;;;;;5026983;28;20559;-51
2022/01/02 09:09:54;;;;;;;6.57;5.93;;;;;;;;;;5027662;28;20034;-52
2022/01/02 09:12:20;;;;;;;5.95;5.35;;;;;;;;;;5037273;28;20390;-55
2022/01/02 09:14:46;;;;;;;7.05;5.88;;;;;;;;;;5040031;28;20033;-47
2022/01/02 09:17:12;;;;;;;6.40;5.78;;;;;;;;;;5030132;28;20478;-48
2022/01/02 09:19:37;;;;;;;6.03;5.43;;;;;;;;;;5029350;28;20050;-54
2022/01/02 09:22:04;;;;;;;6.13;4.80;;;;;;;;;;5031979;28;20053;-54
2022/01/02 09:24:30;;;;;;;6.65;5.32;;;;;;;;;;5036856;28;20505;-55
2022/01/02 09:26:56;;;;;;;8.50;5.10;;;;;;;;;;5036498;28;20048;-52
2022/01/02 09:29:22;;;;;;;7.90;5.57;;;;;;;;;;5033280;28;20021;-55
2022/01/02 09:31:48;;;;;;;6.25;5.28;;;;;;;;;;5031011;28;20048;-52
2022/01/02 09:34:14;;;;;;;6.60;5.47;;;;;;;;;;5034541;28;20372;-55
2022/01/02 09:36:40;;;;;;;5.55;5.05;;;;;;;;;;5019697;28;20037;-48
2022/01/02 09:39:06;;;;;;;6.28;5.68;;;;;;;;;;5031906;28;20033;-51
2022/01/02 09:41:32;;;;;;;7.82;5.70;;;;;;;;;;5026475;28;20367;-52
2022/01/02 09:43:58;;;;;;;6.13;5.57;;;;;;;;;;5029759;28;20100;-56
2022/01/02 09:46:25;;;;;;;5.85;5.25;;;;;;;;;;5025450;28;20158;-49
2022/01/02 09:48:52;;;;;;;5.88;5.25;;;;;;;;;;5030467;28;20482;-50
2022/01/02 09:51:22;;;;;;;5.90;4.95;;;;;;;;;;5030360;28;20029;-50
2022/01/02 09:53:48;;;;;;;5.97;5.03;;;;;;;;;;5028480;28;20033;-51
2022/01/02 09:56:14;;;;;;;6.55;5.40;;;;;;;;;;5055267;28;20026;-53
2022/01/02 09:58:42;;;;;;;9.18;5.50;;;;;;;;;;5025423;28;20056;-54
2022/01/02 10:01:14;;;;;;;5.85;5.25;;;;;;;;;;5023844;28;20030;-52
2022/01/02 10:03:42;;;;;;;7.30;5.50;;;;;;;;;;5030188;28;20064;-51
2022/01/02 10:06:08;;;;;;;5.43;4.82;;;;;;;;;;5032528;28;22156;-51
2022/01/02 10:08:36;;;;;;;5.90;5.30;;;;;;;;;;5025653;28;20505;-49
2022/01/02 10:11:16;;;;;;;6.30;4.75;;;;;;;;;;5029359;28;20021;-55
2022/01/02 10:14:01;;;;;;;6.13;5.22;;;;;;;;;;5027911;28;20029;-54
2022/01/02 10:16:39;;;;;;;6.38;5.57;;;;;;;;;;5028021;28;20393;-49
2022/01/02 10:19:19;;;;;;;5.53;5.03;;;;;;;;;;5028102;28;20037;-54
2022/01/02 10:21:54;;;;;;;6.53;5.60;;;;;;;;;;5024087;28;20045;-54
2022/01/02 10:24:27;;;;;;;6.35;5.68;;;;;;;;;;5020785;28;20425;-55
2022/01/02 10:27:01;;;;;;;5.18;4.68;;;;;;;;;;5029631;28;20034;-55
2022/01/02 10:29:47;;;;;;;7.50;6.15;;;;;;;;;;5025311;28;20037;-55
2022/01/02 10:32:24;;;;;;;7.28;5.40;;;;;;;;;;5021577;28;20529;-52
2022/01/02 10:34:51;;;;;;;9.98;6.47;;;;;;;;;;5026306;28;20483;-53
2022/01/02 10:37:26;;;;;;;7.88;6.47;;;;;;;;;;5027821;28;20033;-53
2022/01/02 10:39:52;;;;;;;7.93;6.13;;;;;;;;;;5029948;28;20470;-53
2022/01/02 10:42:19;;;;;;;8.15;6.80;;;;;;;;;;5028331;28;20065;-55
2022/01/02 10:44:46;;;;;;;7.97;6.60;;;;;;;;;;5033961;28;20045;-49
2022/01/02 10:47:21;;;;;;;12.32;6.95;;;;;;;;;;5024478;28;20080;-54
2022/01/02 10:50:03;;;;;;;9.68;6.78;;;;;;;;;;5024223;28;20034;-55
2022/01/02 10:52:32;;;;;;;9.60;6.82;;;;;;;;;;5028878;28;20131;-53
2022/01/02 10:55:05;;;;;;;9.15;7.35;;;;;;;;;;5023491;28;20040;-54
2022/01/02 10:57:31;;;;;;;8.82;7.07;;;;;;;;;;5037879;28;20037;-50
2022/01/02 10:59:58;;;;;;;9.60;7.38;;;;;;;;;;5030078;28;20490;-52
2022/01/02 11:02:25;;;;;;;12.32;7.32;;;;;;;;;;5030429;28;20095;-54
2022/01/02 11:05:05;;;;;;;8.40;6.95;;;;;;;;;;5034865;28;20025;-53
2022/01/02 11:07:40;;;;;;;13.38;8.23;;;;;;;;;;5030322;28;20033;-52
2022/01/02 11:10:08;;;;;;;11.15;7.70;;;;;;;;;;5027277;28;20034;-54
2022/01/02 11:12:33;;;;;;;10.18;7.38;;;;;;;;;;5035806;28;20030;-55
2022/01/02 11:15:00;;;;;;;13.93;8.57;;;;;;;;;;5039989;28;20086;-52
2022/01/02 11:17:27;;;;;;;13.48;8.90;;;;;;;;;;5032661;28;20462;-53
2022/01/02 11:19:52;;;;;;;11.85;8.63;;;;;;;;;;5031405;28;20034;-56
2022/01/02 11:22:42;;;;;;;12.68;8.68;;;;;;;;;;5031374;28;20528;-54
2022/01/02 11:25:51;;;;;;;13.48;8.02;;;;;;;;;;5029681;28;20051;-55
2022/01/02 11:28:26;;;;;;;10.35;8.23;;;;;;;;;;5025367;28;20034;-53
2022/01/02 11:30:53;;;;;;;13.07;9.85;;;;;;;;;;5036104;28;20109;-52
2022/01/02 11:33:32;;;;;;;13.52;10.02;;;;;;;;;;5031177;28;20500;-54
2022/01/02 11:36:00;;;;;;;12.32;8.93;;;;;;;;;;5033264;28;20036;-55
2022/01/02 11:38:41;;;;;;;10.68;8.63;;;;;;;;;;5034225;28;20359;-56
2022/01/02 11:41:07;;;;;;;10.98;8.57;;;;;;;;;;5026691;28;20112;-53
2022/01/02 11:43:35;;;;;;;12.82;9.55;;;;;;;;;;5030739;28;20116;-56
2022/01/02 11:46:26;;;;;;;9.30;7.75;;;;;;;;;;5031099;28;20099;-55
2022/01/02 11:49:04;;;;;;;9.90;7.82;;;;;;;;;;5029828;28;20041;-55
2022/01/02 11:51:48;;;;;;;9.60;8.05;;;;;;;;;;5033138;28;20486;-55
2022/01/02 11:54:33;;;;;;;12.68;10.15;;;;;;;;;;5036702;28;20034;-48
2022/01/02 11:57:03;;;;;;;12.98;9.48;;;;;;;;;;5036904;28;20498;-50
2022/01/02 11:59:38;;;;;;;12.43;9.48;;;;;;;;;;5030093;28;20030;-48
2022/01/02 12:02:08;;;;;;;11.05;8.35;;;;;;;;;;5034148;28;20939;-50
2022/01/02 12:05:02;;;;;;;13.45;8.38;;;;;;;;;;5033520;28;20025;-49
2022/01/02 12:07:34;;;;;;;10.55;8.23;;;;;;;;;;5022631;28;20481;-47
2022/01/02 12:10:21;;;;;;;13.35;9.20;;;;;;;;;;5029611;28;20410;-47
2022/01/02 12:12:59;;;;;;;12.07;9.18;;;;;;;;;;5032301;28;20029;-52
2022/01/02 12:15:44;;;;;;;12.93;10.25;;;;;;;;;;5038164;28;20223;-47
2022/01/02 12:18:19;;;;;;;14.57;9.80;;;;;;;;;;5030512;28;20036;-50
2022/01/02 12:23:33;;;;;;;14.38;10.45;;;;;;;;;;5027528;28;20062;-53
2022/01/02 12:26:03;;;;;;;13.60;10.07;;;;;;;;;;5030864;28;20096;-52
2022/01/02 12:28:42;;;;;;;14.75;11.90;;;;;;;;;;5031838;28;20105;-49
2022/01/02 12:31:11;;;;;;;18.00;12.10;;;;;;;;;;5029325;28;20041;-51
2022/01/02 12:33:38;;;;;;;15.60;10.60;;;;;;;;;;5033485;28;20437;-47
2022/01/02 12:36:16;;;;;;;18.10;10.73;;;;;;;;;;5034721;28;20041;-49
2022/01/02 12:38:53;;;;;;;17.20;10.50;;;;;;;;;;5035526;28;20471;-48
2022/01/02 12:41:23;;;;;;;18.90;11.38;;;;;;;;;;5030763;28;20044;-52
2022/01/02 12:44:00;;;;;;;21.20;12.13;;;;;;;;;;5031237;28;20029;-51
2022/01/02 12:46:48;;;;;;;19.20;11.75;;;;;;;;;;5030401;28;20033;-49
2022/01/02 12:49:16;;;;;;;15.00;11.98;;;;;;;;;;5024496;28;20042;-50
2022/01/02 12:51:45;;;;;;;18.48;11.25;;;;;;;;;;5024017;28;20021;-49
2022/01/02 12:54:16;;;;;;;16.63;12.00;;;;;;;;;;5035150;28;20044;-49
2022/01/02 12:56:48;;;;;;;21.05;14.00;;;;;;;;;;5035977;28;20095;-51
2022/01/02 12:59:15;;;;;;;;;;;;;;;;;;5026633;28;20035;-51
2022/01/02 13:01:52;;;;;;;21.40;13.48;;;;;;;;;;5028796;28;20377;-47
2022/01/02 13:04:22;;;;;;;25.88;17.65;;;;;;;;;;5022401;28;20034;-48
2022/01/02 13:06:48;;;;;;;25.38;18.75;;;;;;;;;;5029201;28;20482;-47
2022/01/02 13:09:40;;;;;;;31.63;21.67;;;;;;;;;;5022492;28;20033;-54
2022/01/02 13:12:18;;;;;;;31.77;21.83;;;;;;;;;;5031769;28;20064;-47
2022/01/02 13:14:46;;;;;;;32.90;21.58;;;;;;;;;;5027887;28;20037;-53
2022/01/02 13:17:21;;;;;;;31.63;23.25;;;;;;;;;;5025226;28;20053;-50
2022/01/02 13:20:07;;;;;;;26.88;19.35;;;;;;;;;;5025713;28;20053;-49
2022/01/02 13:22:37;;;;;;;29.33;21.25;;;;;;;;;;5031746;28;20075;-50
2022/01/02 13:25:26;;;;;;;29.77;21.70;;;;;;;;;;5027176;28;20121;-47
2022/01/02 13:27:55;;;;;;;30.02;22.60;;;;;;;;;;5025156;28;20044;-48
2022/01/02 13:30:28;;;;;;;33.92;23.42;;;;;;;;;;5029936;28;20029;-48
2022/01/02 13:32:56;;;;;;;32.53;21.58;;;;;;;;;;5029981;28;20029;-49
2022/01/02 13:35:24;;;;;;;27.58;20.30;;;;;;;;;;5033027;28;20021;-49
2022/01/02 13:38:07;;;;;;;26.55;19.02;;;;;;;;;;5023444;28;20025;-48
2022/01/02 13:40:36;;;;;;;22.42;17.63;;;;;;;;;;5026712;28;20027;-48
2022/01/02 13:43:07;;;;;;;23.67;17.77;;;;;;;;;;5023068;28;20064;-51
2022/01/02 13:45:34;;;;;;;24.20;18.70;;;;;;;;;;5033264;28;20052;-49
2022/01/02 13:48:12;;;;;;;27.58;20.00;;;;;;;;;;5029978;28;20042;-49
2022/01/02 13:50:42;;;;;;;25.90;19.67;;;;;;;;;;5033639;28;20144;-51
2022/01/02 13:53:21;;;;;;;24.30;17.35;;;;;;;;;;5027576;28;20481;-47
2022/01/02 13:55:53;;;;;;;23.02;16.08;;;;;;;;;;5023502;28;20040;-49
2022/01/02 13:58:25;;;;;;;20.53;16.47;;;;;;;;;;5026438;28;20674;-47
2022/01/02 14:00:59;;;;;;;20.42;16.13;;;;;;;;;;5033707;28;20270;-48
2022/01/02 14:03:35;;;;;;;19.25;14.40;;;;;;;;;;5032540;28;20029;-47
2022/01/02 14:06:02;;;;;;;20.35;14.88;;;;;;;;;;5031302;28;20037;-47
2022/01/02 14:08:28;;;;;;;19.13;14.30;;;;;;;;;;5028685;28;20037;-49
2022/01/02 14:11:06;;;;;;;16.70;13.52;;;;;;;;;;5028661;28;20133;-56
2022/01/02 14:13:44;;;;;;;18.83;13.68;;;;;;;;;;5025600;28;20043;-48
2022/01/02 14:16:20;;;;;;;18.15;13.70;;;;;;;;;;5023568;28;20030;-51
2022/01/02 14:18:46;;;;;;;18.38;14.68;;;;;;;;;;5027452;28;20060;-53
2022/01/02 14:21:12;;;;;;;19.60;15.20;;;;;;;;;;5033245;28;20037;-50
2022/01/02 14:23:38;;;;;;;25.58;16.42;;;;;;;;;;5028334;28;20462;-48
2022/01/02 14:26:04;;;;;;;21.73;16.73;;;;;;;;;;5025217;28;20055;-50
2022/01/02 14:28:29;;;;;;;25.23;16.15;;;;;;;;;;5034127;28;20033;-49
2022/01/02 14:30:55;;;;;;;27.23;17.10;;;;;;;;;;5024352;28;20375;-49
2022/01/02 14:33:21;;;;;;;22.38;16.73;;;;;;;;;;5033142;28;20029;-53
2022/01/02 14:35:47;;;;;;;22.65;16.75;;;;;;;;;;5026462;28;20033;-48
2022/01/02 14:38:14;;;;;;;23.33;16.92;;;;;;;;;;5028594;28;20026;-54
2022/01/02 14:40:40;;;;;;;21.75;16.95;;;;;;;;;;5031439;28;20029;-47
2022/01/02 14:43:06;;;;;;;24.00;18.45;;;;;;;;;;5027696;28;20036;-49
2022/01/02 14:45:32;;;;;;;23.08;17.00;;;;;;;;;;5034968;28;20040;-47
2022/01/02 14:47:58;;;;;;;25.27;17.88;;;;;;;;;;5035497;28;20041;-55
2022/01/02 14:50:24;;;;;;;22.58;17.00;;;;;;;;;;5034639;28;20090;-50
2022/01/02 14:52:49;;;;;;;22.88;17.38;;;;;;;;;;5028036;28;20429;-49
2022/01/02 14:55:18;;;;;;;23.20;17.20;;;;;;;;;;5033240;28;20108;-47
2022/01/02 14:57:46;;;;;;;25.15;18.27;;;;;;;;;;5028538;28;20025;-50